sensor_id;sensor_type;location;lat;lon;timestamp;temperature;humidity
60860;DHT22;46694;54.382;9.708;2023-12-14T00:01:51;3.30;99.90
60860;DHT22;46694;54.382;9.708;2023-12-14T00:04:16;3.30;99.90
60860;DHT22;46694;54.382;9.708;2023-12-14T00:06:42;3.40;99.90
60860;DHT22;46694;54.382;9.708;2023-12-14T00:09:08;3.40;99.90
60860;DHT22;46694;54.382;9.708;2023-12-14T00:11:37;3.40;99.90
60860;DHT22;46694;54.382;9.708;2023-12-14T00:14:06;3.40;99.90
60860;DHT22;46694;54.382;9.708;2023-12-14T00:16:32;3.40;99.90
60860;DHT22;46694;54.382;9.708;2023-12-14T00:18:57;3.40;99.90
60860;DHT22;46694;54.382;9.708;2023-12-14T00:21:23;3.40;99.90
60860;DHT22;46694;54.382;9.708;2023-12-14T00:23:49;3.40;99.90
60860;DHT22;46694;54.382;9.708;2023-12-14T00:26:15;3.40;99.90
60860;DHT22;46694;54.382;9.708;2023-12-14T00:28:42;3.40;99.90
60860;DHT22;46694;54.382;9.708;2023-12-14T00:31:08;3.40;99.90
60860;DHT22;46694;54.382;9.708;2023-12-14T00:33:34;3.40;99.90
60860;DHT22;46694;54.382;9.708;2023-12-14T00:36:00;3.40;99.90
60860;DHT22;46694;54.382;9.708;2023-12-14T00:38:25;3.40;99.90
60860;DHT22;46694;54.382;9.708;2023-12-14T00:40:51;3.40;99.90
60860;DHT22;46694;54.382;9.708;2023-12-14T00:43:17;3.40;99.90
60860;DHT22;46694;54.382;9.708;2023-12-14T00:45:43;3.50;99.90
60860;DHT22;46694;54.382;9.708;2023-12-14T00:48:08;3.50;99.90
60860;DHT22;46694;54.382;9.708;2023-12-14T00:50:34;3.50;99.90
60860;DHT22;46694;54.382;9.708;2023-12-14T00:53:00;3.50;99.90
60860;DHT22;46694;54.382;9.708;2023-12-14T00:55:26;3.50;99.90
60860;DHT22;46694;54.382;9.708;2023-12-14T00:57:51;3.50;99.90
60860;DHT22;46694;54.382;9.708;2023-12-14T01:00:18;3.60;99.90
60860;DHT22;46694;54.382;9.708;2023-12-14T01:02:44;3.60;99.90
60860;DHT22;46694;54.382;9.708;2023-12-14T01:05:09;3.60;99.90
60860;DHT22;46694;54.382;9.708;2023-12-14T01:07:35;3.60;99.90
60860;DHT22;46694;54.382;9.708;2023-12-14T01:10:01;3.70;99.90
60860;DHT22;46694;54.382;9.708;2023-12-14T01:12:27;3.70;99.90
60860;DHT22;46694;54.382;9.708;2023-12-14T01:14:53;3.70;99.90
60860;DHT22;46694;54.382;9.708;2023-12-14T01:17:19;3.70;99.90
60860;DHT22;46694;54.382;9.708;2023-12-14T01:19:45;3.70;99.90
60860;DHT22;46694;54.382;9.708;2023-12-14T01:22:10;3.70;99.90
60860;DHT22;46694;54.382;9.708;2023-12-14T01:24:36;3.80;99.90
60860;DHT22;46694;54.382;9.708;2023-12-14T01:27:02;3.80;99.90
60860;DHT22;46694;54.382;9.708;2023-12-14T01:29:28;3.80;99.90
60860;DHT22;46694;54.382;9.708;2023-12-14T01:31:53;3.80;99.90
60860;DHT22;46694;54.382;9.708;2023-12-14T01:34:19;3.80;99.90
60860;DHT22;46694;54.382;9.708;2023-12-14T01:36:45;3.80;99.90
60860;DHT22;46694;54.382;9.708;2023-12-14T01:39:11;3.80;99.90
60860;DHT22;46694;54.382;9.708;2023-12-14T01:41:37;3.80;99.90
60860;DHT22;46694;54.382;9.708;2023-12-14T01:44:02;3.80;99.90
60860;DHT22;46694;54.382;9.708;2023-12-14T01:46:28;3.80;99.90
60860;DHT22;46694;54.382;9.708;2023-12-14T01:48:54;3.80;99.90
60860;DHT22;46694;54.382;9.708;2023-12-14T01:51:20;3.80;99.90
60860;DHT22;46694;54.382;9.708;2023-12-14T01:53:45;3.80;99.90
60860;DHT22;46694;54.382;9.708;2023-12-14T01:56:13;3.80;99.90
60860;DHT22;46694;54.382;9.708;2023-12-14T01:58:39;3.80;99.90
60860;DHT22;46694;54.382;9.708;2023-12-14T02:03:48;3.90;99.90
60860;DHT22;46694;54.382;9.708;2023-12-14T02:06:15;3.90;99.90
60860;DHT22;46694;54.382;9.708;2023-12-14T02:08:41;3.90;99.90
60860;DHT22;46694;54.382;9.708;2023-12-14T02:11:07;3.90;99.90
60860;DHT22;46694;54.382;9.708;2023-12-14T02:13:33;3.90;99.90
60860;DHT22;46694;54.382;9.708;2023-12-14T02:15:59;3.90;99.90
60860;DHT22;46694;54.382;9.708;2023-12-14T02:18:24;3.90;99.90
60860;DHT22;46694;54.382;9.708;2023-12-14T02:20:50;3.90;99.90
60860;DHT22;46694;54.382;9.708;2023-12-14T02:23:17;3.90;99.90
60860;DHT22;46694;54.382;9.708;2023-12-14T02:25:42;3.90;99.90
60860;DHT22;46694;54.382;9.708;2023-12-14T02:28:08;3.90;99.90
60860;DHT22;46694;54.382;9.708;2023-12-14T02:30:34;3.90;99.90
60860;DHT22;46694;54.382;9.708;2023-12-14T02:33:00;3.90;99.90
60860;DHT22;46694;54.382;9.708;2023-12-14T02:35:26;3.90;99.90
60860;DHT22;46694;54.382;9.708;2023-12-14T02:37:51;3.90;99.90
60860;DHT22;46694;54.382;9.708;2023-12-14T02:40:17;3.90;99.90
60860;DHT22;46694;54.382;9.708;2023-12-14T02:42:43;3.90;99.90
60860;DHT22;46694;54.382;9.708;2023-12-14T02:45:09;3.80;99.90
60860;DHT22;46694;54.382;9.708;2023-12-14T02:47:35;3.80;99.90
60860;DHT22;46694;54.382;9.708;2023-12-14T02:50:01;3.80;99.90
60860;DHT22;46694;54.382;9.708;2023-12-14T02:52:27;3.80;99.90
60860;DHT22;46694;54.382;9.708;2023-12-14T02:54:53;3.80;99.90
60860;DHT22;46694;54.382;9.708;2023-12-14T02:57:19;3.80;99.90
60860;DHT22;46694;54.382;9.708;2023-12-14T02:59:44;3.80;99.90
60860;DHT22;46694;54.382;9.708;2023-12-14T03:02:10;3.80;99.90
60860;DHT22;46694;54.382;9.708;2023-12-14T03:04:39;3.70;99.90
60860;DHT22;46694;54.382;9.708;2023-12-14T03:07:05;3.70;99.90
60860;DHT22;46694;54.382;9.708;2023-12-14T03:09:31;3.70;99.90
60860;DHT22;46694;54.382;9.708;2023-12-14T03:11:57;3.70;99.90
60860;DHT22;46694;54.382;9.708;2023-12-14T03:14:23;3.70;99.90
60860;DHT22;46694;54.382;9.708;2023-12-14T03:16:52;3.70;99.90
60860;DHT22;46694;54.382;9.708;2023-12-14T03:19:17;3.70;99.90
60860;DHT22;46694;54.382;9.708;2023-12-14T03:21:43;3.70;99.90
60860;DHT22;46694;54.382;9.708;2023-12-14T03:24:09;3.70;99.90
60860;DHT22;46694;54.382;9.708;2023-12-14T03:26:35;3.70;99.90
60860;DHT22;46694;54.382;9.708;2023-12-14T03:29:01;3.70;99.90
60860;DHT22;46694;54.382;9.708;2023-12-14T03:31:27;3.70;99.90
60860;DHT22;46694;54.382;9.708;2023-12-14T03:33:53;3.70;99.90
60860;DHT22;46694;54.382;9.708;2023-12-14T03:36:18;3.70;99.90
60860;DHT22;46694;54.382;9.708;2023-12-14T03:38:44;3.70;99.90
60860;DHT22;46694;54.382;9.708;2023-12-14T03:41:10;3.80;99.90
60860;DHT22;46694;54.382;9.708;2023-12-14T03:43:36;3.70;99.90
60860;DHT22;46694;54.382;9.708;2023-12-14T03:46:01;3.80;99.90
60860;DHT22;46694;54.382;9.708;2023-12-14T03:48:27;3.80;99.90
60860;DHT22;46694;54.382;9.708;2023-12-14T03:50:53;3.80;99.90
60860;DHT22;46694;54.382;9.708;2023-12-14T03:53:19;3.80;99.90
60860;DHT22;46694;54.382;9.708;2023-12-14T03:55:46;3.80;99.90
60860;DHT22;46694;54.382;9.708;2023-12-14T03:58:11;3.80;99.90
60860;DHT22;46694;54.382;9.708;2023-12-14T04:00:37;3.80;99.90
60860;DHT22;46694;54.382;9.708;2023-12-14T04:03:03;3.70;99.90
60860;DHT22;46694;54.382;9.708;2023-12-14T04:05:28;3.80;99.90
60860;DHT22;46694;54.382;9.708;2023-12-14T04:07:54;3.80;99.90
60860;DHT22;46694;54.382;9.708;2023-12-14T04:10:20;3.80;99.90
60860;DHT22;46694;54.382;9.708;2023-12-14T04:12:46;3.80;99.90
60860;DHT22;46694;54.382;9.708;2023-12-14T04:15:12;3.80;99.90
60860;DHT22;46694;54.382;9.708;2023-12-14T04:17:37;3.80;99.90
60860;DHT22;46694;54.382;9.708;2023-12-14T04:20:03;3.80;99.90
60860;DHT22;46694;54.382;9.708;2023-12-14T04:22:31;3.80;99.90
60860;DHT22;46694;54.382;9.708;2023-12-14T04:24:57;3.80;99.90
60860;DHT22;46694;54.382;9.708;2023-12-14T04:27:23;3.80;99.90
60860;DHT22;46694;54.382;9.708;2023-12-14T04:29:54;3.80;99.90
60860;DHT22;46694;54.382;9.708;2023-12-14T04:32:19;3.80;99.90
60860;DHT22;46694;54.382;9.708;2023-12-14T04:34:45;3.80;99.90
60860;DHT22;46694;54.382;9.708;2023-12-14T04:37:11;3.80;99.90
60860;DHT22;46694;54.382;9.708;2023-12-14T04:39:37;3.80;99.90
60860;DHT22;46694;54.382;9.708;2023-12-14T04:42:02;3.70;99.90
60860;DHT22;46694;54.382;9.708;2023-12-14T04:44:28;3.80;99.90
60860;DHT22;46694;54.382;9.708;2023-12-14T04:46:54;3.80;99.90
60860;DHT22;46694;54.382;9.708;2023-12-14T04:49:20;3.80;99.90
60860;DHT22;46694;54.382;9.708;2023-12-14T04:51:46;3.80;99.90
60860;DHT22;46694;54.382;9.708;2023-12-14T04:54:12;3.80;99.90
60860;DHT22;46694;54.382;9.708;2023-12-14T04:56:37;3.80;99.90
60860;DHT22;46694;54.382;9.708;2023-12-14T04:59:03;3.80;99.90
60860;DHT22;46694;54.382;9.708;2023-12-14T05:01:29;3.80;99.90
60860;DHT22;46694;54.382;9.708;2023-12-14T05:03:54;3.80;99.90
60860;DHT22;46694;54.382;9.708;2023-12-14T05:06:21;3.80;99.90
60860;DHT22;46694;54.382;9.708;2023-12-14T05:08:47;3.80;99.90
60860;DHT22;46694;54.382;9.708;2023-12-14T05:14:10;3.70;99.90
60860;DHT22;46694;54.382;9.708;2023-12-14T05:16:36;3.70;99.90
60860;DHT22;46694;54.382;9.708;2023-12-14T05:19:02;3.70;99.90
60860;DHT22;46694;54.382;9.708;2023-12-14T05:21:27;3.70;99.90
60860;DHT22;46694;54.382;9.708;2023-12-14T05:23:54;3.70;99.90
60860;DHT22;46694;54.382;9.708;2023-12-14T05:26:19;3.70;99.90
60860;DHT22;46694;54.382;9.708;2023-12-14T05:28:45;3.70;99.90
60860;DHT22;46694;54.382;9.708;2023-12-14T05:31:11;3.70;99.90
60860;DHT22;46694;54.382;9.708;2023-12-14T05:33:39;3.70;99.90
60860;DHT22;46694;54.382;9.708;2023-12-14T05:36:06;3.70;99.90
60860;DHT22;46694;54.382;9.708;2023-12-14T05:38:38;3.70;99.90
60860;DHT22;46694;54.382;9.708;2023-12-14T05:41:04;3.70;99.90
60860;DHT22;46694;54.382;9.708;2023-12-14T05:43:30;3.70;99.90
60860;DHT22;46694;54.382;9.708;2023-12-14T05:45:56;3.70;99.90
60860;DHT22;46694;54.382;9.708;2023-12-14T05:48:22;3.70;99.90
60860;DHT22;46694;54.382;9.708;2023-12-14T05:50:48;3.80;99.90
60860;DHT22;46694;54.382;9.708;2023-12-14T05:53:14;3.80;99.90
60860;DHT22;46694;54.382;9.708;2023-12-14T05:55:41;3.80;99.90
60860;DHT22;46694;54.382;9.708;2023-12-14T05:58:07;3.80;99.90
60860;DHT22;46694;54.382;9.708;2023-12-14T06:00:33;3.80;99.90
60860;DHT22;46694;54.382;9.708;2023-12-14T06:03:00;3.70;99.90
60860;DHT22;46694;54.382;9.708;2023-12-14T06:05:26;3.80;99.90
60860;DHT22;46694;54.382;9.708;2023-12-14T06:07:52;3.80;99.90
60860;DHT22;46694;54.382;9.708;2023-12-14T06:10:18;3.80;99.90
60860;DHT22;46694;54.382;9.708;2023-12-14T06:12:44;3.80;99.90
60860;DHT22;46694;54.382;9.708;2023-12-14T06:15:09;3.80;99.90
60860;DHT22;46694;54.382;9.708;2023-12-14T06:17:36;3.80;99.90
60860;DHT22;46694;54.382;9.708;2023-12-14T06:20:05;3.70;99.90
60860;DHT22;46694;54.382;9.708;2023-12-14T06:22:35;3.80;99.90
60860;DHT22;46694;54.382;9.708;2023-12-14T06:25:01;3.80;99.90
60860;DHT22;46694;54.382;9.708;2023-12-14T06:27:28;3.70;99.90
60860;DHT22;46694;54.382;9.708;2023-12-14T06:29:54;3.70;99.90
60860;DHT22;46694;54.382;9.708;2023-12-14T06:32:20;3.70;99.90
60860;DHT22;46694;54.382;9.708;2023-12-14T06:34:46;3.60;99.90
60860;DHT22;46694;54.382;9.708;2023-12-14T06:40:07;3.60;99.90
60860;DHT22;46694;54.382;9.708;2023-12-14T06:42:33;3.60;99.90
60860;DHT22;46694;54.382;9.708;2023-12-14T06:45:01;3.60;99.90
60860;DHT22;46694;54.382;9.708;2023-12-14T06:47:28;3.50;99.90
60860;DHT22;46694;54.382;9.708;2023-12-14T06:49:53;3.50;99.90
60860;DHT22;46694;54.382;9.708;2023-12-14T06:52:21;3.50;99.90
60860;DHT22;46694;54.382;9.708;2023-12-14T06:54:46;3.40;99.90
60860;DHT22;46694;54.382;9.708;2023-12-14T06:57:12;3.40;99.90
60860;DHT22;46694;54.382;9.708;2023-12-14T06:59:38;3.50;99.90
60860;DHT22;46694;54.382;9.708;2023-12-14T07:02:04;3.40;99.90
60860;DHT22;46694;54.382;9.708;2023-12-14T07:04:29;3.40;99.90
60860;DHT22;46694;54.382;9.708;2023-12-14T07:06:55;3.40;99.90
60860;DHT22;46694;54.382;9.708;2023-12-14T07:09:21;3.40;99.90
60860;DHT22;46694;54.382;9.708;2023-12-14T07:11:47;3.40;99.90
60860;DHT22;46694;54.382;9.708;2023-12-14T07:14:13;3.40;99.90
60860;DHT22;46694;54.382;9.708;2023-12-14T07:16:40;3.40;99.90
60860;DHT22;46694;54.382;9.708;2023-12-14T07:19:06;3.30;99.90
60860;DHT22;46694;54.382;9.708;2023-12-14T07:21:32;3.30;99.90
60860;DHT22;46694;54.382;9.708;2023-12-14T07:23:58;3.30;99.90
60860;DHT22;46694;54.382;9.708;2023-12-14T07:26:24;3.30;99.90
60860;DHT22;46694;54.382;9.708;2023-12-14T07:28:52;3.30;99.90
60860;DHT22;46694;54.382;9.708;2023-12-14T07:31:19;3.30;99.90
60860;DHT22;46694;54.382;9.708;2023-12-14T07:33:45;3.30;99.90
60860;DHT22;46694;54.382;9.708;2023-12-14T07:36:11;3.30;99.90
60860;DHT22;46694;54.382;9.708;2023-12-14T07:38:36;3.30;99.90
60860;DHT22;46694;54.382;9.708;2023-12-14T07:41:02;3.30;99.90
60860;DHT22;46694;54.382;9.708;2023-12-14T07:43:29;3.30;99.90
60860;DHT22;46694;54.382;9.708;2023-12-14T07:45:55;3.30;99.90
60860;DHT22;46694;54.382;9.708;2023-12-14T07:48:21;3.30;99.90
60860;DHT22;46694;54.382;9.708;2023-12-14T07:50:47;3.20;99.90
60860;DHT22;46694;54.382;9.708;2023-12-14T07:53:13;3.20;99.90
60860;DHT22;46694;54.382;9.708;2023-12-14T07:55:39;3.20;99.90
60860;DHT22;46694;54.382;9.708;2023-12-14T07:58:05;3.20;99.90
60860;DHT22;46694;54.382;9.708;2023-12-14T08:00:31;3.20;99.90
60860;DHT22;46694;54.382;9.708;2023-12-14T08:02:56;3.20;99.90
60860;DHT22;46694;54.382;9.708;2023-12-14T08:05:22;3.20;99.90
60860;DHT22;46694;54.382;9.708;2023-12-14T08:07:48;3.20;99.90
60860;DHT22;46694;54.382;9.708;2023-12-14T08:10:17;3.30;99.90
60860;DHT22;46694;54.382;9.708;2023-12-14T08:12:44;3.30;99.90
60860;DHT22;46694;54.382;9.708;2023-12-14T08:15:10;3.30;99.90
60860;DHT22;46694;54.382;9.708;2023-12-14T08:17:37;3.30;99.90
60860;DHT22;46694;54.382;9.708;2023-12-14T08:20:03;3.30;99.90
60860;DHT22;46694;54.382;9.708;2023-12-14T08:22:34;3.40;99.90
60860;DHT22;46694;54.382;9.708;2023-12-14T08:25:00;3.40;99.90
60860;DHT22;46694;54.382;9.708;2023-12-14T08:27:26;3.40;99.90
60860;DHT22;46694;54.382;9.708;2023-12-14T08:29:51;3.40;99.90
60860;DHT22;46694;54.382;9.708;2023-12-14T08:32:17;3.40;99.90
60860;DHT22;46694;54.382;9.708;2023-12-14T08:34:43;3.50;99.90
60860;DHT22;46694;54.382;9.708;2023-12-14T08:37:09;3.50;99.90
60860;DHT22;46694;54.382;9.708;2023-12-14T08:39:34;3.50;99.90
60860;DHT22;46694;54.382;9.708;2023-12-14T08:42:00;3.50;99.90
60860;DHT22;46694;54.382;9.708;2023-12-14T08:44:26;3.50;99.90
60860;DHT22;46694;54.382;9.708;2023-12-14T08:46:52;3.50;99.90
60860;DHT22;46694;54.382;9.708;2023-12-14T08:49:17;3.50;99.90
60860;DHT22;46694;54.382;9.708;2023-12-14T08:51:43;3.50;99.90
60860;DHT22;46694;54.382;9.708;2023-12-14T08:54:09;3.50;99.90
60860;DHT22;46694;54.382;9.708;2023-12-14T08:56:35;3.50;99.90
60860;DHT22;46694;54.382;9.708;2023-12-14T08:59:00;3.50;99.90
60860;DHT22;46694;54.382;9.708;2023-12-14T09:25:20;11.20;99.90
60860;DHT22;46694;54.382;9.708;2023-12-14T09:27:46;5.60;99.90
60860;DHT22;46694;54.382;9.708;2023-12-14T09:30:12;5.30;99.90
60860;DHT22;46694;54.382;9.708;2023-12-14T09:32:38;5.10;99.90
60860;DHT22;46694;54.382;9.708;2023-12-14T10:10:36;9.10;99.90
60860;DHT22;46694;54.382;9.708;2023-12-14T10:13:02;7.60;99.90
60860;DHT22;46694;54.382;9.708;2023-12-14T10:15:29;6.90;99.90
60860;DHT22;46694;54.382;9.708;2023-12-14T10:17:55;6.40;99.90
60860;DHT22;46694;54.382;9.708;2023-12-14T10:20:23;6.00;99.90
60860;DHT22;46694;54.382;9.708;2023-12-14T10:22:51;5.70;99.90
60860;DHT22;46694;54.382;9.708;2023-12-14T10:25:19;5.50;99.90
60860;DHT22;46694;54.382;9.708;2023-12-14T10:27:47;5.40;99.90
60860;DHT22;46694;54.382;9.708;2023-12-14T10:30:14;5.20;99.90
60860;DHT22;46694;54.382;9.708;2023-12-14T10:32:41;5.20;99.90
60860;DHT22;46694;54.382;9.708;2023-12-14T10:35:07;5.10;99.90
60860;DHT22;46694;54.382;9.708;2023-12-14T10:37:37;5.00;99.90
60860;DHT22;46694;54.382;9.708;2023-12-14T10:40:08;4.90;99.90
60860;DHT22;46694;54.382;9.708;2023-12-14T10:42:36;4.90;99.90
60860;DHT22;46694;54.382;9.708;2023-12-14T10:45:04;4.90;99.90
60860;DHT22;46694;54.382;9.708;2023-12-14T10:47:32;4.90;99.90
60860;DHT22;46694;54.382;9.708;2023-12-14T10:50:00;4.90;99.90
60860;DHT22;46694;54.382;9.708;2023-12-14T10:52:29;4.80;99.90
60860;DHT22;46694;54.382;9.708;2023-12-14T10:55:04;4.80;99.90
60860;DHT22;46694;54.382;9.708;2023-12-14T10:57:34;4.80;99.90
60860;DHT22;46694;54.382;9.708;2023-12-14T11:00:01;4.80;99.90
60860;DHT22;46694;54.382;9.708;2023-12-14T11:02:28;4.80;99.90
60860;DHT22;46694;54.382;9.708;2023-12-14T11:04:57;4.80;99.90
60860;DHT22;46694;54.382;9.708;2023-12-14T11:10:22;4.80;99.90
60860;DHT22;46694;54.382;9.708;2023-12-14T11:15:24;4.80;99.90
60860;DHT22;46694;54.382;9.708;2023-12-14T11:23:15;4.80;99.90
60860;DHT22;46694;54.382;9.708;2023-12-14T11:25:43;4.80;99.90
60860;DHT22;46694;54.382;9.708;2023-12-14T11:28:12;4.80;99.90
60860;DHT22;46694;54.382;9.708;2023-12-14T11:30:38;4.80;99.90
60860;DHT22;46694;54.382;9.708;2023-12-14T11:33:04;4.80;99.90
60860;DHT22;46694;54.382;9.708;2023-12-14T11:35:30;4.80;99.90
60860;DHT22;46694;54.382;9.708;2023-12-14T11:37:56;4.80;99.90
60860;DHT22;46694;54.382;9.708;2023-12-14T11:40:24;4.80;99.90
60860;DHT22;46694;54.382;9.708;2023-12-14T11:43:01;4.80;99.90
60860;DHT22;46694;54.382;9.708;2023-12-14T11:45:42;4.80;99.90
60860;DHT22;46694;54.382;9.708;2023-12-14T11:48:10;4.80;99.90
60860;DHT22;46694;54.382;9.708;2023-12-14T11:50:41;4.80;99.90
60860;DHT22;46694;54.382;9.708;2023-12-14T11:53:08;4.80;99.90
60860;DHT22;46694;54.382;9.708;2023-12-14T11:55:38;5.00;99.90
60860;DHT22;46694;54.382;9.708;2023-12-14T11:58:06;5.20;99.90
60860;DHT22;46694;54.382;9.708;2023-12-14T12:00:32;5.20;99.90
60860;DHT22;46694;54.382;9.708;2023-12-14T12:03:13;5.30;99.90
60860;DHT22;46694;54.382;9.708;2023-12-14T12:05:44;5.40;99.90
60860;DHT22;46694;54.382;9.708;2023-12-14T12:08:12;5.40;99.90
60860;DHT22;46694;54.382;9.708;2023-12-14T12:10:40;5.50;99.90
60860;DHT22;46694;54.382;9.708;2023-12-14T12:13:11;5.50;99.90
60860;DHT22;46694;54.382;9.708;2023-12-14T12:15:41;5.60;99.90
60860;DHT22;46694;54.382;9.708;2023-12-14T12:18:11;5.60;99.90
60860;DHT22;46694;54.382;9.708;2023-12-14T12:20:39;5.60;99.90
60860;DHT22;46694;54.382;9.708;2023-12-14T12:23:05;5.70;99.90
60860;DHT22;46694;54.382;9.708;2023-12-14T12:25:32;5.70;99.90
60860;DHT22;46694;54.382;9.708;2023-12-14T12:27:59;5.70;99.90
60860;DHT22;46694;54.382;9.708;2023-12-14T12:30:26;5.70;99.90
60860;DHT22;46694;54.382;9.708;2023-12-14T12:32:52;5.70;99.90
60860;DHT22;46694;54.382;9.708;2023-12-14T12:35:18;5.70;99.90
60860;DHT22;46694;54.382;9.708;2023-12-14T12:37:45;5.70;99.90
60860;DHT22;46694;54.382;9.708;2023-12-14T12:40:11;5.60;99.90
60860;DHT22;46694;54.382;9.708;2023-12-14T12:42:37;5.60;99.90
60860;DHT22;46694;54.382;9.708;2023-12-14T12:45:04;5.60;99.90
60860;DHT22;46694;54.382;9.708;2023-12-14T12:47:31;5.60;99.90
60860;DHT22;46694;54.382;9.708;2023-12-14T12:49:56;5.50;99.90
60860;DHT22;46694;54.382;9.708;2023-12-14T12:52:22;5.40;99.90
60860;DHT22;46694;54.382;9.708;2023-12-14T12:54:48;5.30;99.90
60860;DHT22;46694;54.382;9.708;2023-12-14T12:57:14;5.20;99.90
60860;DHT22;46694;54.382;9.708;2023-12-14T12:59:40;5.20;99.90
60860;DHT22;46694;54.382;9.708;2023-12-14T13:02:05;5.20;99.90
60860;DHT22;46694;54.382;9.708;2023-12-14T13:04:31;5.10;99.90
60860;DHT22;46694;54.382;9.708;2023-12-14T13:06:57;5.10;99.90
60860;DHT22;46694;54.382;9.708;2023-12-14T13:09:23;5.10;99.90
60860;DHT22;46694;54.382;9.708;2023-12-14T13:11:49;5.10;99.90
60860;DHT22;46694;54.382;9.708;2023-12-14T13:14:15;5.10;99.90
60860;DHT22;46694;54.382;9.708;2023-12-14T13:16:42;5.00;99.90
60860;DHT22;46694;54.382;9.708;2023-12-14T13:19:09;5.00;99.90
60860;DHT22;46694;54.382;9.708;2023-12-14T13:21:35;5.00;99.90
60860;DHT22;46694;54.382;9.708;2023-12-14T13:24:02;4.90;99.90
60860;DHT22;46694;54.382;9.708;2023-12-14T13:26:28;5.00;99.90
60860;DHT22;46694;54.382;9.708;2023-12-14T13:28:54;5.00;99.90
60860;DHT22;46694;54.382;9.708;2023-12-14T13:31:21;5.00;99.90
60860;DHT22;46694;54.382;9.708;2023-12-14T13:33:48;5.00;99.90
60860;DHT22;46694;54.382;9.708;2023-12-14T13:36:15;4.90;99.90
60860;DHT22;46694;54.382;9.708;2023-12-14T13:38:42;4.90;99.90
60860;DHT22;46694;54.382;9.708;2023-12-14T13:41:08;4.80;99.90
60860;DHT22;46694;54.382;9.708;2023-12-14T13:43:34;4.80;99.90
60860;DHT22;46694;54.382;9.708;2023-12-14T13:46:00;4.80;99.90
60860;DHT22;46694;54.382;9.708;2023-12-14T13:48:27;4.70;99.90
60860;DHT22;46694;54.382;9.708;2023-12-14T13:50:54;4.70;99.90
60860;DHT22;46694;54.382;9.708;2023-12-14T13:53:21;4.60;99.90
60860;DHT22;46694;54.382;9.708;2023-12-14T13:55:47;4.70;99.90
60860;DHT22;46694;54.382;9.708;2023-12-14T13:58:17;4.70;99.90
60860;DHT22;46694;54.382;9.708;2023-12-14T14:00:45;4.70;99.90
60860;DHT22;46694;54.382;9.708;2023-12-14T14:03:12;4.70;99.90
60860;DHT22;46694;54.382;9.708;2023-12-14T14:05:38;4.80;99.90
60860;DHT22;46694;54.382;9.708;2023-12-14T14:08:04;4.80;99.90
60860;DHT22;46694;54.382;9.708;2023-12-14T14:10:30;4.80;99.90
60860;DHT22;46694;54.382;9.708;2023-12-14T14:13:24;4.80;99.90
60860;DHT22;46694;54.382;9.708;2023-12-14T14:15:50;4.80;99.90
60860;DHT22;46694;54.382;9.708;2023-12-14T14:18:16;4.80;99.90
60860;DHT22;46694;54.382;9.708;2023-12-14T14:21:06;4.80;99.90
60860;DHT22;46694;54.382;9.708;2023-12-14T14:23:34;4.80;99.90
60860;DHT22;46694;54.382;9.708;2023-12-14T14:26:00;4.80;99.90
60860;DHT22;46694;54.382;9.708;2023-12-14T14:28:26;4.90;99.90
60860;DHT22;46694;54.382;9.708;2023-12-14T14:30:52;4.90;99.90
60860;DHT22;46694;54.382;9.708;2023-12-14T14:33:18;4.90;99.90
60860;DHT22;46694;54.382;9.708;2023-12-14T14:35:47;4.90;99.90
60860;DHT22;46694;54.382;9.708;2023-12-14T14:38:13;4.90;99.90
60860;DHT22;46694;54.382;9.708;2023-12-14T14:40:41;4.90;99.90
60860;DHT22;46694;54.382;9.708;2023-12-14T14:43:08;4.90;99.90
60860;DHT22;46694;54.382;9.708;2023-12-14T14:45:35;4.90;99.90
60860;DHT22;46694;54.382;9.708;2023-12-14T14:48:05;4.90;99.90
60860;DHT22;46694;54.382;9.708;2023-12-14T14:50:32;4.90;99.90
60860;DHT22;46694;54.382;9.708;2023-12-14T14:52:58;4.90;99.90
60860;DHT22;46694;54.382;9.708;2023-12-14T14:55:24;4.90;99.90
60860;DHT22;46694;54.382;9.708;2023-12-14T14:57:51;4.90;99.90
60860;DHT22;46694;54.382;9.708;2023-12-14T15:00:18;4.90;99.90
60860;DHT22;46694;54.382;9.708;2023-12-14T15:02:44;4.80;99.90
60860;DHT22;46694;54.382;9.708;2023-12-14T15:05:10;4.80;99.90
60860;DHT22;46694;54.382;9.708;2023-12-14T15:07:36;4.80;99.90
60860;DHT22;46694;54.382;9.708;2023-12-14T15:10:02;4.80;99.90
60860;DHT22;46694;54.382;9.708;2023-12-14T15:12:28;4.80;99.90
60860;DHT22;46694;54.382;9.708;2023-12-14T15:14:54;4.80;99.90
60860;DHT22;46694;54.382;9.708;2023-12-14T15:17:22;4.70;99.90
60860;DHT22;46694;54.382;9.708;2023-12-14T15:19:48;4.70;99.90
60860;DHT22;46694;54.382;9.708;2023-12-14T15:22:15;4.70;99.90
60860;DHT22;46694;54.382;9.708;2023-12-14T15:24:42;4.70;99.90
60860;DHT22;46694;54.382;9.708;2023-12-14T15:27:07;4.70;99.90
60860;DHT22;46694;54.382;9.708;2023-12-14T15:29:34;4.70;99.90
60860;DHT22;46694;54.382;9.708;2023-12-14T15:32:00;4.70;99.90
60860;DHT22;46694;54.382;9.708;2023-12-14T15:34:26;4.60;99.90
60860;DHT22;46694;54.382;9.708;2023-12-14T15:36:51;4.60;99.90
60860;DHT22;46694;54.382;9.708;2023-12-14T15:39:17;4.60;99.90
60860;DHT22;46694;54.382;9.708;2023-12-14T15:41:43;4.50;99.90
60860;DHT22;46694;54.382;9.708;2023-12-14T15:44:09;4.60;99.90
60860;DHT22;46694;54.382;9.708;2023-12-14T15:46:35;4.50;99.90
60860;DHT22;46694;54.382;9.708;2023-12-14T15:49:00;4.50;99.90
60860;DHT22;46694;54.382;9.708;2023-12-14T15:51:27;4.40;99.90
60860;DHT22;46694;54.382;9.708;2023-12-14T15:53:53;4.40;99.90
60860;DHT22;46694;54.382;9.708;2023-12-14T15:56:21;4.40;99.90
60860;DHT22;46694;54.382;9.708;2023-12-14T15:58:48;4.40;99.90
60860;DHT22;46694;54.382;9.708;2023-12-14T16:01:14;4.30;99.90
60860;DHT22;46694;54.382;9.708;2023-12-14T16:03:42;4.30;99.90
60860;DHT22;46694;54.382;9.708;2023-12-14T16:06:08;4.30;99.90
60860;DHT22;46694;54.382;9.708;2023-12-14T16:08:34;4.30;99.90
60860;DHT22;46694;54.382;9.708;2023-12-14T16:11:00;4.30;99.90
60860;DHT22;46694;54.382;9.708;2023-12-14T16:13:25;4.20;99.90
60860;DHT22;46694;54.382;9.708;2023-12-14T16:15:54;4.30;99.90
60860;DHT22;46694;54.382;9.708;2023-12-14T16:18:19;4.20;99.90
60860;DHT22;46694;54.382;9.708;2023-12-14T16:20:47;4.20;99.90
60860;DHT22;46694;54.382;9.708;2023-12-14T16:23:15;4.30;99.90
60860;DHT22;46694;54.382;9.708;2023-12-14T16:25:41;4.30;99.90
60860;DHT22;46694;54.382;9.708;2023-12-14T16:28:07;4.30;99.90
60860;DHT22;46694;54.382;9.708;2023-12-14T16:30:33;4.30;99.90
60860;DHT22;46694;54.382;9.708;2023-12-14T16:32:59;4.30;99.90
60860;DHT22;46694;54.382;9.708;2023-12-14T16:35:25;4.30;99.90
60860;DHT22;46694;54.382;9.708;2023-12-14T16:37:50;4.30;99.90
60860;DHT22;46694;54.382;9.708;2023-12-14T16:40:16;4.30;99.90
60860;DHT22;46694;54.382;9.708;2023-12-14T16:42:43;4.40;99.90
60860;DHT22;46694;54.382;9.708;2023-12-14T16:45:09;4.40;99.90
60860;DHT22;46694;54.382;9.708;2023-12-14T16:47:36;4.40;99.90
60860;DHT22;46694;54.382;9.708;2023-12-14T16:50:02;4.40;99.90
60860;DHT22;46694;54.382;9.708;2023-12-14T16:52:29;4.30;99.90
60860;DHT22;46694;54.382;9.708;2023-12-14T16:54:55;4.30;99.90
60860;DHT22;46694;54.382;9.708;2023-12-14T16:57:20;4.30;99.90
60860;DHT22;46694;54.382;9.708;2023-12-14T16:59:50;4.30;99.90